Terminal Aerodrome Forecast
Issued by NWS

Home | Current Version | Previous Version | Text Only | Print | Product List | Glossary On
Versions: 1 2 3 4 5 6 7 8 9 10 11 12 13 14 15 16 17 18 19 20 21 22 23 24 25 26 27 28 29
000
FTUS45 KPSR 052014 AAC
TAFPHX
TAF AMD
KPHX 052014Z 0520/0618 18012G22KT P6SM BKN250
      TEMPO 0520/0522 20018G30KT 6SM BLDU
     FM052200 22018G30KT 6SM BLDU BKN250
     FM060400 21006KT P6SM FEW150 FEW250
     FM061000 18008KT P6SM SCT050 BKN080=

USA.gov is the U.S. government's official web portal to all federal, state and local government web resources and services.